Time;durP1;ratioP1;P1;durP2;ratioP2;P2;SDS_P1;SDS_P2;PMS_P1;PMS_P2;Temp;Humidity;BMP_temperature;BMP_pressure;BME280_temperature;BME280_humidity;BME280_pressure;Samples;Min_cycle;Max_cycle;Signal;HPM_P1;HPM_P2
2022/10/30 00:00:44;;;;;;;30.43;8.23;;;10.90;99.90;;;;;;5119818;28;20183;-60
2022/10/30 00:03:12;;;;;;;32.67;8.60;;;10.90;99.90;;;;;;5128042;28;20173;-60
2022/10/30 00:05:43;;;;;;;13.70;8.50;;;10.80;99.90;;;;;;5128580;28;20173;-60
2022/10/30 00:08:10;;;;;;;16.97;7.90;;;10.80;99.90;;;;;;5123555;28;20473;-59
2022/10/30 00:10:36;;;;;;;25.40;9.23;;;10.80;99.90;;;;;;5121262;28;20426;-60
2022/10/30 00:13:02;;;;;;;33.43;8.80;;;10.80;99.90;;;;;;5117996;28;20445;-60
2022/10/30 00:15:28;;;;;;;16.20;8.77;;;10.80;99.90;;;;;;5124873;28;20172;-60
2022/10/30 00:17:53;;;;;;;27.93;8.73;;;10.80;99.90;;;;;;5116949;28;20196;-60
2022/10/30 00:20:19;;;;;;;17.67;7.80;;;10.80;99.90;;;;;;5122167;28;20184;-60
2022/10/30 00:22:44;;;;;;;15.00;7.60;;;10.80;99.90;;;;;;5118616;28;20248;-60
2022/10/30 00:25:10;;;;;;;17.43;8.20;;;10.80;99.90;;;;;;5116295;28;20228;-60
2022/10/30 00:27:36;;;;;;;16.00;8.07;;;10.70;99.90;;;;;;5096498;28;20197;-60
2022/10/30 00:30:01;;;;;;;20.53;8.37;;;10.70;99.90;;;;;;5122672;28;20195;-60
2022/10/30 00:32:27;;;;;;;16.20;7.20;;;10.70;99.90;;;;;;5124719;28;20632;-60
2022/10/30 00:34:53;;;;;;;16.40;7.53;;;10.70;99.90;;;;;;5117898;28;20184;-60
2022/10/30 00:37:18;;;;;;;17.40;7.43;;;10.60;99.90;;;;;;5125783;27;20690;-61
2022/10/30 00:39:44;;;;;;;14.37;7.07;;;10.60;99.90;;;;;;5117871;27;20172;-60
2022/10/30 00:42:14;;;;;;;20.63;7.70;;;10.60;99.90;;;;;;5126824;27;20639;-60
2022/10/30 00:44:43;;;;;;;21.77;7.50;;;10.60;99.90;;;;;;5127298;27;20208;-60
2022/10/30 00:47:17;;;;;;;23.43;6.73;;;10.60;99.90;;;;;;5118015;27;20519;-60
2022/10/30 00:50:08;;;;;;;16.13;6.97;;;10.60;99.90;;;;;;5129537;27;20516;-60
2022/10/30 00:52:39;;;;;;;18.13;7.90;;;10.60;99.90;;;;;;5123620;27;20464;-60
2022/10/30 00:55:14;;;;;;;17.80;7.50;;;10.60;99.90;;;;;;5129279;27;20409;-60
2022/10/30 00:57:41;;;;;;;17.47;6.83;;;10.60;99.90;;;;;;5110888;27;20528;-60
2022/10/30 01:00:08;;;;;;;16.33;6.17;;;10.60;99.90;;;;;;5126526;27;20437;-60
2022/10/30 01:02:34;;;;;;;18.67;6.43;;;10.50;99.90;;;;;;5119805;27;20434;-61
2022/10/30 01:05:00;;;;;;;20.40;6.70;;;10.50;99.90;;;;;;5123080;27;20448;-59
2022/10/30 01:07:26;;;;;;;16.60;7.10;;;10.50;99.90;;;;;;5120749;27;20234;-60
2022/10/30 01:09:51;;;;;;;19.73;8.13;;;10.50;99.90;;;;;;5127676;27;20439;-60
2022/10/30 01:12:17;;;;;;;19.17;8.03;;;10.50;99.90;;;;;;5129562;27;20175;-60
2022/10/30 01:14:49;;;;;;;21.97;7.27;;;10.40;99.90;;;;;;5128817;27;20179;-60
2022/10/30 01:17:33;;;;;;;18.63;7.40;;;10.40;99.90;;;;;;5128727;27;20279;-60
2022/10/30 01:20:17;;;;;;;18.43;7.60;;;10.30;99.90;;;;;;5120951;27;20415;-60
2022/10/30 01:23:01;;;;;;;16.63;6.87;;;10.30;99.90;;;;;;5111184;27;20467;-60
2022/10/30 01:25:48;;;;;;;13.73;6.97;;;10.30;99.90;;;;;;5130081;27;20544;-60
2022/10/30 01:28:46;;;;;;;13.33;6.70;;;10.30;99.90;;;;;;5123755;27;20523;-60
2022/10/30 01:31:27;;;;;;;15.93;7.30;;;10.20;99.90;;;;;;5131644;27;20425;-60
2022/10/30 01:34:29;;;;;;;20.23;7.47;;;10.20;99.90;;;;;;5124376;27;20428;-60
2022/10/30 01:37:08;;;;;;;18.87;7.93;;;10.10;99.90;;;;;;5125026;27;21026;-60
2022/10/30 01:39:39;;;;;;;14.73;7.60;;;10.10;99.90;;;;;;5120842;27;20526;-60
2022/10/30 01:42:47;;;;;;;14.40;7.60;;;10.10;99.90;;;;;;5120359;27;20754;-59
2022/10/30 01:45:44;;;;;;;20.73;7.40;;;10.10;99.90;;;;;;5120817;27;20938;-60
2022/10/30 01:48:32;;;;;;;19.30;7.03;;;10.00;99.90;;;;;;5106615;27;21097;-60
2022/10/30 01:51:30;;;;;;;13.50;7.10;;;10.00;99.90;;;;;;5130589;27;20418;-60
2022/10/30 01:54:02;;;;;;;32.93;7.67;;;10.00;99.90;;;;;;5095872;27;20552;-60
2022/10/30 01:56:58;;;;;;;12.20;6.10;;;10.00;99.90;;;;;;5122103;27;20529;-60
2022/10/30 01:59:31;;;;;;;14.30;6.70;;;9.90;99.90;;;;;;5120341;27;20836;-60
2022/10/30 02:01:57;;;;;;;20.63;6.87;;;9.90;99.90;;;;;;5126949;27;20533;-59
2022/10/30 02:04:24;;;;;;;11.37;6.00;;;9.90;99.90;;;;;;5129327;27;20470;-60
2022/10/30 02:06:50;;;;;;;19.20;6.80;;;9.90;99.90;;;;;;5120432;27;20453;-60
2022/10/30 02:09:16;;;;;;;8.60;6.20;;;9.80;99.90;;;;;;5126976;27;20426;-60
2022/10/30 02:11:44;;;;;;;19.83;8.30;;;9.80;99.90;;;;;;5127034;27;20932;-59
2022/10/30 02:14:10;;;;;;;13.60;7.00;;;9.80;99.90;;;;;;5123305;27;20443;-60
2022/10/30 02:16:41;;;;;;;16.80;7.13;;;9.80;99.90;;;;;;5111230;27;20845;-61
2022/10/30 02:19:06;;;;;;;16.23;6.40;;;9.80;99.90;;;;;;5132002;27;20434;-60
2022/10/30 02:21:32;;;;;;;20.63;6.90;;;9.80;99.90;;;;;;5110246;27;20433;-59
2022/10/30 02:23:58;;;;;;;12.50;6.23;;;9.80;99.90;;;;;;5126703;27;20203;-60
2022/10/30 02:26:23;;;;;;;15.90;7.37;;;9.70;99.90;;;;;;5128990;27;20238;-60
2022/10/30 02:28:49;;;;;;;22.37;6.60;;;9.70;99.90;;;;;;5127375;27;20175;-60
2022/10/30 02:31:15;;;;;;;12.33;7.20;;;9.70;99.90;;;;;;5128973;27;20179;-61
2022/10/30 02:33:45;;;;;;;14.07;6.40;;;9.70;99.90;;;;;;5120206;27;20184;-60
2022/10/30 02:36:14;;;;;;;14.00;6.90;;;9.70;99.90;;;;;;5124030;27;20662;-60
2022/10/30 02:38:40;;;;;;;12.23;6.20;;;9.60;99.90;;;;;;5115073;27;20435;-60
2022/10/30 02:41:05;;;;;;;19.03;6.37;;;9.60;99.90;;;;;;5121521;27;20433;-60
2022/10/30 02:43:31;;;;;;;22.67;7.27;;;9.60;99.90;;;;;;5125568;27;20438;-60
2022/10/30 02:45:56;;;;;;;19.23;6.60;;;9.60;99.90;;;;;;5102378;28;20187;-59
2022/10/30 02:48:22;;;;;;;15.80;6.33;;;9.60;99.90;;;;;;5111412;27;20180;-60
2022/10/30 02:50:48;;;;;;;11.43;6.27;;;9.50;99.90;;;;;;5119626;27;20251;-60
2022/10/30 02:53:13;;;;;;;14.83;6.20;;;9.50;99.90;;;;;;5126678;27;20273;-60
2022/10/30 02:55:39;;;;;;;12.27;5.90;;;9.50;99.90;;;;;;5128338;27;20172;-61
2022/10/30 02:58:04;;;;;;;9.90;6.10;;;9.50;99.90;;;;;;5124345;27;20581;-60
2022/10/30 03:00:30;;;;;;;16.23;6.83;;;9.50;99.90;;;;;;5120450;27;20187;-60
2022/10/30 03:02:56;;;;;;;16.37;6.50;;;9.40;99.90;;;;;;5098381;27;20596;-60
2022/10/30 03:05:22;;;;;;;18.13;5.57;;;9.40;99.90;;;;;;5127373;27;20261;-60
2022/10/30 03:07:47;;;;;;;14.80;5.60;;;9.40;99.90;;;;;;5102309;27;20479;-60
2022/10/30 03:10:14;;;;;;;14.53;6.07;;;9.40;99.90;;;;;;5123300;27;20232;-60
2022/10/30 03:12:39;;;;;;;18.63;7.03;;;9.40;99.90;;;;;;5101125;28;20541;-60
2022/10/30 03:15:05;;;;;;;16.80;5.60;;;9.40;99.90;;;;;;5109772;28;20434;-60
2022/10/30 03:17:31;;;;;;;14.10;6.00;;;9.40;99.90;;;;;;5117481;27;20632;-60
2022/10/30 03:19:56;;;;;;;16.00;6.20;;;9.40;99.90;;;;;;5123780;27;20447;-60
2022/10/30 03:22:22;;;;;;;16.40;6.20;;;9.40;99.90;;;;;;5129076;27;20263;-60
2022/10/30 03:24:48;;;;;;;14.50;5.70;;;9.40;99.90;;;;;;5129875;27;20567;-60
2022/10/30 03:27:13;;;;;;;12.40;6.60;;;9.40;99.90;;;;;;5126295;27;20196;-60
2022/10/30 03:29:39;;;;;;;8.87;5.43;;;9.40;99.90;;;;;;5126935;27;20177;-61
2022/10/30 03:32:09;;;;;;;11.37;5.23;;;9.40;99.90;;;;;;5108672;28;20907;-60
2022/10/30 03:34:35;;;;;;;9.93;5.10;;;9.30;99.90;;;;;;5110525;28;20185;-60
2022/10/30 03:37:01;;;;;;;12.30;5.93;;;9.30;99.90;;;;;;5114220;28;20433;-60
2022/10/30 03:39:26;;;;;;;13.57;5.27;;;9.30;99.90;;;;;;5128980;28;20176;-60
2022/10/30 03:41:52;;;;;;;9.27;5.97;;;9.30;99.90;;;;;;5122693;28;20176;-60
2022/10/30 03:44:17;;;;;;;11.10;5.10;;;9.30;99.90;;;;;;5128865;28;20208;-60
2022/10/30 03:46:43;;;;;;;6.87;5.07;;;9.20;99.90;;;;;;5112760;28;20220;-60
2022/10/30 03:49:08;;;;;;;12.37;5.20;;;9.20;99.90;;;;;;5112675;28;20588;-60
2022/10/30 03:51:34;;;;;;;13.30;4.90;;;9.20;99.90;;;;;;5118995;28;20187;-60
2022/10/30 03:54:00;;;;;;;17.20;5.80;;;9.20;99.90;;;;;;5124903;28;20638;-60
2022/10/30 03:56:25;;;;;;;8.90;5.07;;;9.20;99.90;;;;;;5125886;28;20192;-60
2022/10/30 03:58:51;;;;;;;9.27;4.83;;;9.20;99.90;;;;;;5125449;28;20614;-60
2022/10/30 04:01:16;;;;;;;23.23;5.90;;;9.20;99.90;;;;;;5127529;28;20272;-60
2022/10/30 04:03:42;;;;;;;13.10;5.40;;;9.10;99.90;;;;;;5124695;28;20204;-60
2022/10/30 04:06:08;;;;;;;14.27;5.43;;;9.10;99.90;;;;;;5128284;28;20169;-60
2022/10/30 04:08:33;;;;;;;12.20;5.50;;;9.10;99.90;;;;;;5120029;28;20241;-60
2022/10/30 04:10:59;;;;;;;11.97;6.03;;;9.10;99.90;;;;;;5129675;27;20478;-60
2022/10/30 04:13:25;;;;;;;14.50;5.40;;;9.10;99.90;;;;;;5126617;27;20172;-60
2022/10/30 04:15:51;;;;;;;16.60;6.10;;;9.10;99.90;;;;;;5127116;27;22074;-60
2022/10/30 04:18:17;;;;;;;12.10;5.07;;;9.10;99.90;;;;;;5114240;27;20223;-60
2022/10/30 04:20:43;;;;;;;18.73;6.23;;;9.10;99.90;;;;;;5119411;27;20498;-60
2022/10/30 04:23:14;;;;;;;18.90;5.47;;;9.10;99.90;;;;;;5108602;27;20205;-59
2022/10/30 04:25:40;;;;;;;12.07;5.07;;;9.10;99.90;;;;;;5125261;27;20549;-60
2022/10/30 04:28:05;;;;;;;10.93;5.07;;;9.00;99.90;;;;;;5122849;27;20541;-60
2022/10/30 04:30:34;;;;;;;16.70;7.00;;;9.00;99.90;;;;;;5123504;27;20198;-61
2022/10/30 04:33:00;;;;;;;10.73;5.63;;;9.00;99.90;;;;;;5126567;27;20184;-60
2022/10/30 04:35:29;;;;;;;11.30;4.90;;;9.00;99.90;;;;;;5125943;27;20509;-60
2022/10/30 04:38:03;;;;;;;15.53;5.03;;;9.00;99.90;;;;;;5128469;27;20950;-60
2022/10/30 04:40:31;;;;;;;10.27;5.30;;;9.00;99.90;;;;;;5119486;27;20437;-60
2022/10/30 04:42:57;;;;;;;7.73;5.10;;;9.00;99.90;;;;;;5126725;27;20425;-60
2022/10/30 04:45:23;;;;;;;9.43;5.30;;;9.00;99.90;;;;;;5131881;27;20492;-60
2022/10/30 04:47:49;;;;;;;12.20;4.70;;;9.00;99.90;;;;;;5126231;27;20496;-60
2022/10/30 04:50:15;;;;;;;7.80;4.70;;;9.00;99.90;;;;;;5134480;22;20864;-58
2022/10/30 04:52:41;;;;;;;9.03;5.00;;;9.00;99.90;;;;;;5079688;28;20189;-60
2022/10/30 04:55:07;;;;;;;12.53;5.13;;;9.00;99.90;;;;;;5091687;28;20178;-57
2022/10/30 04:57:35;;;;;;;9.63;4.73;;;9.00;99.90;;;;;;5067968;28;20235;-58
2022/10/30 05:00:03;;;;;;;10.40;5.10;;;9.00;99.90;;;;;;5091589;28;20458;-58
2022/10/30 05:02:28;;;;;;;9.70;4.57;;;8.90;99.90;;;;;;5107581;28;20430;-56
2022/10/30 05:04:54;;;;;;;8.93;5.27;;;8.90;99.90;;;;;;5097772;28;20446;-58
2022/10/30 05:07:20;;;;;;;11.17;4.87;;;8.90;99.90;;;;;;5109094;28;20180;-60
2022/10/30 05:09:45;;;;;;;12.87;5.63;;;8.90;99.90;;;;;;5107329;28;20200;-58
2022/10/30 05:12:11;;;;;;;20.03;5.23;;;8.90;99.90;;;;;;5098245;28;20174;-58
2022/10/30 05:14:37;;;;;;;15.40;5.63;;;8.80;99.90;;;;;;5098032;28;20177;-60
2022/10/30 05:17:02;;;;;;;11.07;5.23;;;8.90;99.90;;;;;;5098817;28;20647;-58
2022/10/30 05:19:28;;;;;;;10.73;6.23;;;8.80;99.90;;;;;;5108642;28;20173;-59
2022/10/30 05:21:54;;;;;;;14.27;5.47;;;8.80;99.90;;;;;;5107429;28;20284;-59
2022/10/30 05:24:20;;;;;;;12.50;5.87;;;8.80;99.90;;;;;;5082167;28;20272;-61
2022/10/30 05:26:45;;;;;;;13.00;5.20;;;8.80;99.90;;;;;;5104866;28;20208;-64
2022/10/30 05:29:12;;;;;;;15.73;5.50;;;8.80;99.90;;;;;;5076218;28;20188;-61
2022/10/30 05:31:37;;;;;;;10.60;4.43;;;8.80;99.90;;;;;;5081814;28;20576;-58
2022/10/30 05:34:03;;;;;;;16.20;5.23;;;8.80;99.90;;;;;;5100488;28;20434;-58
2022/10/30 05:36:29;;;;;;;18.07;5.40;;;8.80;99.90;;;;;;5099580;28;20544;-57
2022/10/30 05:38:55;;;;;;;10.37;4.90;;;8.80;99.90;;;;;;5110097;28;20169;-61
2022/10/30 05:41:20;;;;;;;13.93;5.60;;;8.80;99.90;;;;;;5102780;28;20278;-64
2022/10/30 05:43:46;;;;;;;10.63;5.10;;;8.70;99.90;;;;;;5098722;28;21086;-58
2022/10/30 05:46:12;;;;;;;14.70;6.33;;;8.70;99.90;;;;;;5107979;28;20176;-58
2022/10/30 05:48:37;;;;;;;21.63;5.43;;;8.70;99.90;;;;;;5101380;28;20558;-58
2022/10/30 05:51:05;;;;;;;16.53;5.97;;;8.70;99.90;;;;;;5099916;28;20194;-59
2022/10/30 05:53:31;;;;;;;15.93;6.20;;;8.60;99.90;;;;;;5104960;28;20176;-58
2022/10/30 05:55:57;;;;;;;11.47;5.37;;;8.60;99.90;;;;;;5082398;28;20426;-56
2022/10/30 05:58:23;;;;;;;14.83;5.80;;;8.60;99.90;;;;;;5103365;28;20244;-59
2022/10/30 06:00:49;;;;;;;12.70;6.00;;;8.60;99.90;;;;;;5107163;28;20444;-58
2022/10/30 06:03:15;;;;;;;16.50;5.90;;;8.60;99.90;;;;;;5100206;28;20443;-60
2022/10/30 06:05:44;;;;;;;15.33;5.90;;;8.60;99.90;;;;;;5101636;28;20575;-57
2022/10/30 06:08:10;;;;;;;10.80;6.33;;;8.60;99.90;;;;;;5097049;28;20261;-61
2022/10/30 06:10:36;;;;;;;13.07;5.90;;;8.60;99.90;;;;;;5105695;28;20512;-59
2022/10/30 06:13:04;;;;;;;22.40;6.70;;;8.60;99.90;;;;;;5106088;28;20272;-61
2022/10/30 06:15:30;;;;;;;13.93;6.07;;;8.60;99.90;;;;;;5096755;28;20934;-62
2022/10/30 06:17:56;;;;;;;14.70;6.70;;;8.60;99.90;;;;;;5089200;28;20595;-58
2022/10/30 06:20:25;;;;;;;11.50;6.80;;;8.60;99.90;;;;;;5089182;28;20309;-59
2022/10/30 06:23:05;;;;;;;12.73;6.17;;;8.60;99.90;;;;;;5094841;28;20434;-59
2022/10/30 06:25:33;;;;;;;7.40;5.40;;;8.60;99.90;;;;;;5100950;28;20493;-57
2022/10/30 06:27:59;;;;;;;9.80;5.67;;;8.60;99.90;;;;;;5102564;28;20580;-58
2022/10/30 06:30:25;;;;;;;14.77;5.60;;;8.60;99.90;;;;;;5099879;28;20485;-60
2022/10/30 06:33:02;;;;;;;8.30;5.00;;;8.60;99.90;;;;;;5105402;28;20814;-59
2022/10/30 06:35:28;;;;;;;14.00;5.53;;;8.60;99.90;;;;;;5100276;28;22245;-59
2022/10/30 06:37:55;;;;;;;10.90;5.83;;;8.60;99.90;;;;;;5103811;28;20431;-60
2022/10/30 06:40:22;;;;;;;11.80;5.70;;;8.60;99.90;;;;;;5101137;28;20451;-61
2022/10/30 06:42:49;;;;;;;9.53;6.37;;;8.70;99.90;;;;;;5099159;28;20428;-58
2022/10/30 06:45:16;;;;;;;10.13;5.97;;;8.70;99.90;;;;;;5096189;28;20457;-61
2022/10/30 06:47:42;;;;;;;10.00;5.67;;;8.70;99.90;;;;;;5105588;28;20431;-57
2022/10/30 06:50:11;;;;;;;14.53;6.60;;;8.80;99.90;;;;;;5103396;28;20523;-58
2022/10/30 06:52:37;;;;;;;9.70;5.50;;;8.80;99.90;;;;;;5102896;28;20433;-56
2022/10/30 06:55:03;;;;;;;12.00;5.63;;;8.80;99.90;;;;;;5102364;28;20423;-58
2022/10/30 06:57:28;;;;;;;10.27;6.47;;;8.90;99.90;;;;;;5100555;28;20169;-58
2022/10/30 06:59:54;;;;;;;12.77;6.30;;;8.90;99.90;;;;;;5105250;28;20506;-59
2022/10/30 07:02:20;;;;;;;9.37;5.43;;;9.00;99.90;;;;;;5099485;28;20663;-60
2022/10/30 07:04:46;;;;;;;8.13;5.70;;;9.00;99.90;;;;;;5099388;28;20224;-57
2022/10/30 07:07:12;;;;;;;9.83;5.07;;;9.00;99.90;;;;;;5088974;28;20165;-59
2022/10/30 07:09:38;;;;;;;12.67;5.80;;;9.10;99.90;;;;;;5096479;28;20236;-59
2022/10/30 07:12:04;;;;;;;22.60;10.50;;;9.10;99.90;;;;;;5084721;28;20591;-59
2022/10/30 07:14:29;;;;;;;15.50;8.20;;;9.20;99.90;;;;;;5098114;28;20643;-57
2022/10/30 07:16:55;;;;;;;15.83;6.30;;;9.20;99.90;;;;;;5097159;28;20450;-58
2022/10/30 07:19:22;;;;;;;11.50;6.30;;;9.30;99.90;;;;;;5098808;28;20181;-58
2022/10/30 07:21:47;;;;;;;9.77;6.13;;;9.40;99.90;;;;;;5103069;28;20264;-58
2022/10/30 07:24:13;;;;;;;14.60;5.40;;;9.40;99.90;;;;;;5087771;28;20463;-58
2022/10/30 07:26:39;;;;;;;24.20;6.07;;;9.50;99.90;;;;;;5100266;28;20244;-59
2022/10/30 07:29:05;;;;;;;18.23;8.27;;;9.60;99.90;;;;;;5100917;28;20255;-58
2022/10/30 07:31:30;;;;;;;33.80;11.47;;;9.70;99.90;;;;;;5099637;28;20266;-58
2022/10/30 07:33:56;;;;;;;21.53;8.97;;;9.70;99.90;;;;;;5103414;28;20281;-57
2022/10/30 07:36:22;;;;;;;20.60;8.10;;;9.80;99.90;;;;;;5100764;28;20265;-60
2022/10/30 07:38:49;;;;;;;13.30;5.93;;;9.90;99.90;;;;;;5094145;28;20519;-61
2022/10/30 07:41:17;;;;;;;10.43;6.30;;;9.90;99.90;;;;;;5093569;28;20574;-60
2022/10/30 07:43:42;;;;;;;10.40;5.70;;;9.90;99.90;;;;;;5093819;28;20447;-57
2022/10/30 07:46:08;;;;;;;10.20;6.07;;;9.90;99.90;;;;;;5102279;28;20454;-57
2022/10/30 07:48:34;;;;;;;11.23;5.83;;;10.00;99.90;;;;;;5100284;28;20558;-63
2022/10/30 07:50:59;;;;;;;12.60;5.53;;;10.00;99.90;;;;;;5103936;27;20569;-57
2022/10/30 07:53:25;;;;;;;11.70;6.30;;;10.10;99.90;;;;;;5086348;28;20173;-58
2022/10/30 07:55:51;;;;;;;30.10;10.20;;;10.10;99.90;;;;;;5100841;28;20176;-63
2022/10/30 07:58:16;;;;;;;10.60;7.30;;;10.10;99.90;;;;;;5104690;28;20527;-57
2022/10/30 08:00:42;;;;;;;19.00;9.30;;;10.20;99.90;;;;;;5112654;28;20744;-57
2022/10/30 08:03:09;;;;;;;17.97;8.10;;;10.30;99.90;;;;;;5104968;28;20196;-52
2022/10/30 08:05:35;;;;;;;12.47;7.43;;;10.30;99.90;;;;;;5106108;28;20204;-56
2022/10/30 08:08:01;;;;;;;11.50;6.43;;;10.40;99.90;;;;;;5106970;28;20423;-58
2022/10/30 08:10:27;;;;;;;11.00;5.43;;;10.50;99.90;;;;;;5096526;28;20280;-58
2022/10/30 08:12:53;;;;;;;10.20;5.50;;;10.60;99.90;;;;;;5104411;28;20472;-59
2022/10/30 08:15:19;;;;;;;13.60;6.10;;;10.60;99.90;;;;;;5103548;28;20505;-56
2022/10/30 08:17:46;;;;;;;10.93;5.73;;;10.70;99.90;;;;;;5104909;28;20176;-55
2022/10/30 08:20:14;;;;;;;17.83;5.57;;;10.80;99.90;;;;;;5100969;28;20267;-57
2022/10/30 08:22:44;;;;;;;9.97;5.20;;;10.80;99.90;;;;;;5099179;28;20429;-56
2022/10/30 08:25:10;;;;;;;15.03;5.03;;;10.90;99.90;;;;;;5099942;28;20472;-58
2022/10/30 08:27:36;;;;;;;11.67;5.67;;;10.90;99.90;;;;;;5084779;28;20569;-57
2022/10/30 08:30:02;;;;;;;13.23;5.63;;;10.90;99.90;;;;;;5098149;28;20246;-57
2022/10/30 08:32:27;;;;;;;12.93;5.40;;;11.00;99.90;;;;;;5097464;28;20268;-57
2022/10/30 08:34:53;;;;;;;8.03;4.90;;;11.00;99.90;;;;;;5097509;28;20209;-56
2022/10/30 08:37:18;;;;;;;17.50;5.90;;;11.10;99.90;;;;;;5080045;28;20263;-57
2022/10/30 08:39:44;;;;;;;20.50;6.00;;;11.10;99.90;;;;;;5105273;28;20220;-57
2022/10/30 08:42:09;;;;;;;9.07;5.03;;;11.20;99.90;;;;;;5106456;28;20597;-55
2022/10/30 08:44:35;;;;;;;14.07;5.37;;;11.20;99.90;;;;;;5100566;28;20288;-57
2022/10/30 08:47:01;;;;;;;12.50;4.93;;;11.30;99.90;;;;;;5081922;28;20173;-56
2022/10/30 08:49:26;;;;;;;15.90;5.33;;;11.40;99.90;;;;;;5087183;28;20252;-57
2022/10/30 08:51:52;;;;;;;14.90;5.73;;;11.40;99.90;;;;;;5098556;28;20566;-55
2022/10/30 08:54:17;;;;;;;15.30;4.80;;;11.50;99.90;;;;;;5100451;28;20178;-56
2022/10/30 08:56:43;;;;;;;10.23;4.40;;;11.50;99.90;;;;;;5086570;28;20267;-59
2022/10/30 08:59:09;;;;;;;6.87;4.50;;;11.60;99.90;;;;;;5101536;28;20173;-57
2022/10/30 09:01:35;;;;;;;8.17;4.50;;;11.70;99.90;;;;;;5077812;28;20258;-57
2022/10/30 09:04:01;;;;;;;14.23;5.27;;;11.80;99.90;;;;;;5095503;28;20711;-59
2022/10/30 09:06:27;;;;;;;17.33;5.43;;;11.90;99.90;;;;;;5105325;28;20515;-57
2022/10/30 09:08:52;;;;;;;16.57;6.10;;;12.00;99.90;;;;;;5098571;28;20463;-54
2022/10/30 09:11:18;;;;;;;13.30;5.00;;;12.00;99.90;;;;;;5102110;28;20201;-59
2022/10/30 09:13:44;;;;;;;12.90;5.30;;;12.10;99.90;;;;;;5083154;28;20192;-59
2022/10/30 09:16:09;;;;;;;11.23;4.97;;;12.30;99.90;;;;;;5102515;28;20173;-56
2022/10/30 09:18:35;;;;;;;10.80;5.20;;;12.40;99.90;;;;;;5101616;28;20575;-57
2022/10/30 09:21:00;;;;;;;14.30;5.03;;;12.50;99.90;;;;;;5100005;28;20205;-56
2022/10/30 09:23:26;;;;;;;11.60;4.67;;;12.70;99.90;;;;;;5077015;28;20208;-57
2022/10/30 09:25:55;;;;;;;10.10;5.13;;;12.80;99.90;;;;;;5096398;28;20321;-58
2022/10/30 09:28:21;;;;;;;18.87;4.70;;;13.00;99.90;;;;;;5094645;28;20258;-60
2022/10/30 09:30:51;;;;;;;9.27;4.67;;;13.20;99.90;;;;;;5093092;28;20455;-58
2022/10/30 09:33:17;;;;;;;15.50;5.47;;;13.30;99.90;;;;;;5096383;28;20377;-57
2022/10/30 09:35:42;;;;;;;10.43;4.97;;;13.50;99.90;;;;;;5099607;28;20511;-54
2022/10/30 09:38:09;;;;;;;17.57;6.03;;;13.60;99.90;;;;;;5100095;28;20222;-59
2022/10/30 09:40:47;;;;;;;19.10;5.03;;;13.80;99.90;;;;;;5098277;28;20193;-56
2022/10/30 09:43:28;;;;;;;11.40;4.73;;;13.90;99.90;;;;;;5103781;28;20920;-57
2022/10/30 09:45:57;;;;;;;13.23;4.60;;;14.10;99.90;;;;;;5081235;28;20603;-55
2022/10/30 09:48:23;;;;;;;8.80;4.40;;;14.20;99.90;;;;;;5103484;28;20431;-56
2022/10/30 09:51:16;;;;;;;11.40;5.30;;;14.40;99.90;;;;;;5091493;28;20465;-56
2022/10/30 09:54:00;;;;;;;10.10;5.00;;;14.50;99.90;;;;;;5099227;28;21118;-54
2022/10/30 09:56:50;;;;;;;7.63;5.07;;;14.60;99.90;;;;;;5100811;28;20527;-54
2022/10/30 09:59:31;;;;;;;9.73;4.90;;;14.80;99.90;;;;;;5098787;28;20472;-54
2022/10/30 10:02:02;;;;;;;9.27;4.90;;;14.90;99.90;;;;;;5092760;28;20434;-54
2022/10/30 10:04:43;;;;;;;15.73;5.57;;;15.00;99.90;;;;;;5094949;28;20510;-55
2022/10/30 10:07:36;;;;;;;9.80;5.17;;;15.00;99.90;;;;;;5093716;28;20968;-59
2022/10/30 10:10:18;;;;;;;17.80;5.13;;;15.10;99.90;;;;;;5099225;28;20451;-59
2022/10/30 10:12:48;;;;;;;11.07;4.87;;;15.40;99.90;;;;;;5098437;28;20422;-55
2022/10/30 10:15:21;;;;;;;12.50;5.00;;;15.60;99.90;;;;;;5098556;28;20430;-57
2022/10/30 10:17:46;;;;;;;12.47;5.20;;;15.70;99.90;;;;;;5094825;28;20571;-56
2022/10/30 10:20:32;;;;;;;21.30;4.90;;;15.90;99.90;;;;;;5098165;28;20972;-55
2022/10/30 10:23:03;;;;;;;17.43;4.80;;;16.00;99.90;;;;;;5096437;28;20183;-57
2022/10/30 10:25:30;;;;;;;8.23;4.63;;;16.10;99.90;;;;;;5096327;28;20478;-55
2022/10/30 10:28:06;;;;;;;20.17;5.60;;;16.30;99.90;;;;;;5098026;28;20932;-57
2022/10/30 10:30:41;;;;;;;17.20;6.00;;;16.40;99.90;;;;;;5095089;28;20530;-52
2022/10/30 10:33:46;;;;;;;19.53;5.07;;;16.50;99.90;;;;;;5099186;28;20931;-54
2022/10/30 10:36:33;;;;;;;14.17;4.43;;;16.70;99.90;;;;;;5100101;28;20542;-60
2022/10/30 10:39:05;;;;;;;12.40;5.43;;;16.90;99.90;;;;;;5098414;28;20518;-55
2022/10/30 10:41:54;;;;;;;11.40;4.43;;;17.00;99.90;;;;;;5103929;28;20455;-53
2022/10/30 10:44:39;;;;;;;8.77;4.20;;;17.20;99.90;;;;;;5093678;28;21083;-55
2022/10/30 10:47:16;;;;;;;7.80;4.20;;;17.30;99.90;;;;;;5095657;28;20434;-55
2022/10/30 10:50:01;;;;;;;10.93;4.80;;;17.40;99.90;;;;;;5097959;28;21832;-55
2022/10/30 10:52:34;;;;;;;16.63;4.60;;;17.60;99.50;;;;;;5087382;22;20532;-60
2022/10/30 10:55:08;;;;;;;9.77;4.27;;;17.70;96.70;;;;;;5064389;28;20435;-60
2022/10/30 10:57:37;;;;;;;11.23;3.93;;;17.80;97.30;;;;;;5063918;28;20551;-60
2022/10/30 11:00:06;;;;;;;11.43;4.17;;;18.00;95.30;;;;;;5057386;28;20436;-61
2022/10/30 11:02:31;;;;;;;9.70;4.57;;;18.20;95.20;;;;;;5068644;28;20483;-61
2022/10/30 11:05:35;;;;;;;14.03;4.60;;;18.40;91.60;;;;;;5081870;28;20491;-62
2022/10/30 11:08:13;;;;;;;20.60;5.17;;;18.60;89.90;;;;;;5077209;28;20169;-61
2022/10/30 11:10:38;;;;;;;11.10;4.60;;;18.80;90.20;;;;;;5074668;28;20479;-61
2022/10/30 11:13:04;;;;;;;16.93;4.90;;;19.00;91.80;;;;;;5079525;28;21160;-61
2022/10/30 11:15:48;;;;;;;14.47;4.40;;;19.20;92.70;;;;;;5081825;28;20214;-61
2022/10/30 11:18:14;;;;;;;20.23;4.60;;;19.50;92.90;;;;;;5080119;28;20173;-61
2022/10/30 11:21:00;;;;;;;15.97;4.80;;;19.70;92.10;;;;;;5079714;28;20506;-60
2022/10/30 11:23:33;;;;;;;13.30;4.57;;;19.90;89.60;;;;;;5081434;28;20544;-60
2022/10/30 11:26:00;;;;;;;10.97;4.13;;;20.10;88.60;;;;;;5081599;28;20498;-62
2022/10/30 11:28:40;;;;;;;9.13;4.10;;;20.30;85.70;;;;;;5080959;28;20519;-61
2022/10/30 11:31:16;;;;;;;17.57;5.10;;;20.50;81.50;;;;;;5079642;28;21274;-61
2022/10/30 11:33:42;;;;;;;15.60;4.83;;;20.70;75.40;;;;;;5082085;28;21002;-61
2022/10/30 11:36:09;;;;;;;5.80;3.40;;;20.90;71.00;;;;;;5081924;28;20467;-60
2022/10/30 11:38:34;;;;;;;11.00;4.27;;;21.00;71.50;;;;;;5078930;28;20178;-61
2022/10/30 11:41:01;;;;;;;16.40;4.30;;;21.10;71.40;;;;;;5079721;28;20424;-61
2022/10/30 11:43:27;;;;;;;19.93;4.50;;;21.30;70.70;;;;;;5079939;28;20189;-61
2022/10/30 11:45:53;;;;;;;8.07;3.83;;;21.50;69.20;;;;;;5064811;28;20459;-61
2022/10/30 11:48:27;;;;;;;10.23;3.77;;;21.70;69.40;;;;;;5081909;28;20934;-60
2022/10/30 11:51:00;;;;;;;16.57;4.93;;;21.90;69.40;;;;;;5081279;28;20511;-61
2022/10/30 11:54:01;;;;;;;9.50;4.20;;;22.00;68.00;;;;;;5080148;28;20448;-61
2022/10/30 11:56:29;;;;;;;11.13;4.20;;;22.30;66.80;;;;;;4982297;28;21095;-62
2022/10/30 11:58:58;;;;;;;11.83;4.40;;;22.50;66.30;;;;;;5057457;28;20442;-62
2022/10/30 12:01:34;;;;;;;18.67;4.40;;;22.70;64.50;;;;;;5075026;28;20430;-62
2022/10/30 12:04:23;;;;;;;9.60;3.83;;;22.90;63.10;;;;;;5079171;28;21002;-62
2022/10/30 12:07:11;;;;;;;8.97;4.17;;;23.10;60.70;;;;;;5077452;28;20423;-61
2022/10/30 12:09:45;;;;;;;12.97;3.87;;;23.30;60.40;;;;;;5079187;28;20513;-62
2022/10/30 12:12:32;;;;;;;12.13;3.77;;;23.60;59.80;;;;;;5081149;28;20439;-63
2022/10/30 12:15:20;;;;;;;10.50;4.23;;;23.80;59.50;;;;;;5068357;28;20201;-62
2022/10/30 12:18:00;;;;;;;16.13;4.10;;;24.00;59.00;;;;;;5078819;28;20226;-61
2022/10/30 12:20:27;;;;;;;11.93;4.27;;;24.10;58.30;;;;;;5083327;28;20188;-63
2022/10/30 12:22:53;;;;;;;15.70;3.43;;;24.10;57.50;;;;;;5080829;28;20204;-61
2022/10/30 12:25:24;;;;;;;12.13;4.17;;;24.10;56.50;;;;;;5080150;28;20212;-63
2022/10/30 12:27:57;;;;;;;7.50;3.73;;;24.20;56.10;;;;;;5079427;28;20169;-62
2022/10/30 12:30:22;;;;;;;7.60;3.20;;;24.30;55.60;;;;;;5079258;28;20177;-62
2022/10/30 12:32:55;;;;;;;13.07;3.63;;;24.50;55.10;;;;;;5081664;28;20686;-62
2022/10/30 12:35:50;;;;;;;11.93;3.40;;;24.40;53.60;;;;;;5082468;28;20188;-61
2022/10/30 12:38:23;;;;;;;7.37;3.17;;;24.20;52.00;;;;;;5078604;28;20651;-62
2022/10/30 12:40:59;;;;;;;10.13;2.50;;;23.90;51.80;;;;;;5083867;28;20177;-62
2022/10/30 12:43:30;;;;;;;9.67;2.87;;;23.60;52.00;;;;;;5085271;28;20224;-62
2022/10/30 12:46:26;;;;;;;9.93;4.27;;;23.20;53.30;;;;;;5081494;28;20220;-62
2022/10/30 12:49:02;;;;;;;14.10;3.63;;;22.90;53.40;;;;;;5039683;28;20500;-62
2022/10/30 12:51:45;;;;;;;15.30;3.83;;;22.70;53.60;;;;;;5083239;28;20462;-62
2022/10/30 12:54:32;;;;;;;8.67;3.77;;;22.60;55.30;;;;;;5085472;28;20438;-62
2022/10/30 12:57:20;;;;;;;11.70;3.57;;;22.40;56.10;;;;;;5082985;28;20894;-62